MiSS Aimee — WAN9966 — position and weather

sailwx.info

Track history (hours):
 
Tides and Currents Weather Stations Pressure Air Temp Water Temp Dewpoint Dewpoint Depression Visibility Wind Speed Wind Dir Waves Ship Positions

MiSS Aimee

Owner: PATTERSON MARINE INC, MORGAN CITY, LA. More information available from US FCC via Universal Licensing System and Coast Guard Vessel Documentation Center.

Last reported at 2018-Jun-21 14:22 UTC. Time now 2018-Jun-23 08:28 UTC.
Position N 29°50' W 091°58'.

Length 16 m; draft 2 m.

MMSI: 367060130.

Date/timePositionNaut miles runAvg speedWind from/ knotsBaromVisibWave heightAir tempDewpointWater temp
2018-Jun-21 14:22N 29°50' W 091°58'2 6.1
2018-Jun-21 14:00N 29°50' W 092°00'2 4.1
2018-Jun-21 13:30N 29°49' W 092°02'3 6.2
2018-Jun-21 13:00N 29°48' W 092°06'3 5.4
2018-Jun-21 12:30N 29°47' W 092°09'2 4.7
2018-Jun-21 12:00N 29°47' W 092°11'1 1.9
2018-Jun-21 11:30N 29°47' W 092°12'1 2.0
2018-Jun-21 11:00N 29°48' W 092°14'2 3.9
2018-Jun-21 10:30N 29°48' W 092°16'3 5.8
2018-Jun-21 10:00N 29°50' W 092°18'2 4.3
2018-Jun-21 09:30N 29°51' W 092°21'2 4.7
2018-Jun-21 09:00N 29°52' W 092°23'39 5.6
2018-Jun-21 02:06N 29°56' W 093°07'1 6.0
2018-Jun-21 02:00N 29°56' W 093°08'3 5.6
2018-Jun-21 01:30N 29°57' W 093°11'3 5.9
2018-Jun-21 01:00N 29°59' W 093°13'2 4.3
2018-Jun-21 00:30N 30°01' W 093°14'2 4.1
2018-Jun-21 00:00N 30°03' W 093°16'3 5.4
2018-Jun-20 23:30N 30°05' W 093°17'1 1.2
2018-Jun-20 23:00N 30°05' W 093°18'1 1.1
2018-Jun-20 22:30N 30°06' W 093°18'0 0.1
2018-Jun-20 21:58N 30°06' W 093°18'0 0.0
2018-Jun-20 21:28N 30°06' W 093°18'0 0.0
2018-Jun-20 20:59N 30°06' W 093°18'0 0.0
2018-Jun-20 20:30N 30°06' W 093°18'0 0.0
2018-Jun-20 20:00N 30°06' W 093°18'0 0.0
2018-Jun-20 19:30N 30°06' W 093°18'0 0.0
2018-Jun-20 19:00N 30°06' W 093°18'0 0.0
2018-Jun-20 18:30N 30°06' W 093°18'0 0.0
2018-Jun-20 18:00N 30°06' W 093°18'0 0.0
2018-Jun-20 17:30N 30°06' W 093°18'0 0.0
2018-Jun-20 17:00N 30°06' W 093°18'0 0.0
2018-Jun-20 16:30N 30°06' W 093°18'0 0.0
2018-Jun-20 16:00N 30°06' W 093°18'0 0.0
2018-Jun-20 15:30N 30°06' W 093°18'0 0.0
2018-Jun-20 15:00N 30°06' W 093°18'0 0.0
2018-Jun-20 14:30N 30°06' W 093°18'0 0.0
2018-Jun-20 14:00N 30°06' W 093°18'0 0.0
2018-Jun-20 13:30N 30°06' W 093°18'0 0.0
2018-Jun-20 12:58N 30°06' W 093°18'0 0.0
2018-Jun-20 12:28N 30°06' W 093°18'0 0.0
2018-Jun-20 12:00N 30°06' W 093°18'0 0.0
2018-Jun-20 11:30N 30°06' W 093°18'0 0.0
2018-Jun-20 11:00N 30°06' W 093°18'0 0.0
2018-Jun-20 10:30N 30°06' W 093°18'0 0.0
2018-Jun-20 10:00N 30°06' W 093°18'0 0.0
2018-Jun-20 09:30N 30°06' W 093°18'0 0.0
2018-Jun-20 09:00N 30°06' W 093°18'0 0.0
2018-Jun-20 08:30N 30°06' W 093°18'0 0.0
2018-Jun-20 08:00N 30°06' W 093°18'0 0.0
2018-Jun-20 07:30N 30°06' W 093°18'0 0.0
2018-Jun-20 07:00N 30°06' W 093°18'0 0.0
2018-Jun-20 06:30N 30°06' W 093°18'0 0.0
2018-Jun-20 06:00N 30°06' W 093°18'0 0.0
2018-Jun-20 05:30N 30°06' W 093°18'0 0.0
2018-Jun-20 05:00N 30°06' W 093°18'0 0.0
2018-Jun-20 04:30N 30°06' W 093°18'0 0.1
2018-Jun-20 04:00N 30°06' W 093°18'0 0.0
2018-Jun-20 03:30N 30°06' W 093°18'0 0.0
2018-Jun-20 03:00N 30°06' W 093°18'0 0.0
2018-Jun-20 02:29N 30°06' W 093°18'0 0.8
2018-Jun-20 02:00N 30°06' W 093°18'2 4.9
2018-Jun-20 01:30N 30°04' W 093°20'3 6.0
2018-Jun-20 01:00N 30°04' W 093°24'4 7.2
2018-Jun-20 00:30N 30°04' W 093°28'4 7.5
2018-Jun-20 00:00N 30°04' W 093°32'4 7.5
2018-Jun-19 23:30N 30°04' W 093°37'4 7.6
2018-Jun-19 23:00N 30°03' W 093°41'3 5.1
2018-Jun-19 22:30N 30°03' W 093°44'3 6.5
2018-Jun-19 22:00N 30°00' W 093°46'4 7.3
2018-Jun-19 21:30N 29°59' W 093°50'3 6.3
2018-Jun-19 21:00N 29°56' W 093°52'0 0.1
2018-Jun-19 20:30N 29°56' W 093°52'0 0.0
2018-Jun-19 20:00N 29°56' W 093°52'0 0.0
2018-Jun-19 19:30N 29°56' W 093°52'0 0.0
2018-Jun-19 19:00N 29°56' W 093°52'0 0.0
2018-Jun-19 18:30N 29°56' W 093°52'0 0.0
2018-Jun-19 18:00N 29°56' W 093°52'0 0.0
2018-Jun-19 17:30N 29°56' W 093°52'0 0.0
2018-Jun-19 17:00N 29°56' W 093°52'0 0.0
2018-Jun-19 16:30N 29°56' W 093°52'0 0.0
2018-Jun-19 16:00N 29°56' W 093°52'0 0.0
2018-Jun-19 15:30N 29°56' W 093°52'0 0.2
2018-Jun-19 14:59N 29°56' W 093°52'0 0.1
2018-Jun-19 14:30N 29°56' W 093°52'0 0.0
2018-Jun-19 14:00N 29°56' W 093°52'0 0.0
2018-Jun-19 13:30N 29°56' W 093°52'0 0.0
2018-Jun-19 13:00N 29°56' W 093°52'0 0.0
2018-Jun-19 12:30N 29°56' W 093°52'0 0.0
2018-Jun-19 12:00N 29°56' W 093°52'0 0.0
2018-Jun-19 11:30N 29°56' W 093°52'0 0.0
2018-Jun-19 11:00N 29°56' W 093°52'0 0.0
2018-Jun-19 10:30N 29°56' W 093°52'0 0.0
2018-Jun-19 10:00N 29°56' W 093°52'0 0.0
2018-Jun-19 09:30N 29°56' W 093°52'0 0.0
2018-Jun-19 09:00N 29°56' W 093°52'0 0.0
2018-Jun-19 08:30N 29°56' W 093°52'0 0.0
2018-Jun-19 08:00N 29°56' W 093°52'0 0.0
2018-Jun-19 07:30N 29°56' W 093°52'0 0.0
2018-Jun-19 07:00N 29°56' W 093°52'0 0.0
2018-Jun-19 06:30N 29°56' W 093°52'0 0.0
2018-Jun-19 06:00N 29°56' W 093°52'0 0.0
2018-Jun-19 05:30N 29°56' W 093°52'0 0.0
2018-Jun-19 05:00N 29°56' W 093°52'0 0.0
2018-Jun-19 04:30N 29°56' W 093°52'0 0.0
2018-Jun-19 04:00N 29°56' W 093°52'0 0.0
2018-Jun-19 03:30N 29°56' W 093°52'0 0.0
2018-Jun-19 03:00N 29°56' W 093°52'0 0.0
2018-Jun-19 02:30N 29°56' W 093°52'0 0.0
2018-Jun-19 02:00N 29°56' W 093°52'0 0.0
2018-Jun-19 01:30N 29°56' W 093°52'0 0.0
2018-Jun-19 01:00N 29°56' W 093°52'0 0.0
2018-Jun-19 00:30N 29°56' W 093°52'0 0.0
2018-Jun-19 00:00N 29°56' W 093°52'0 0.0
2018-Jun-18 23:30N 29°56' W 093°52'0 0.0
2018-Jun-18 23:00N 29°56' W 093°52'0 0.0
2018-Jun-18 22:30N 29°56' W 093°52'0 0.0
2018-Jun-18 22:00N 29°56' W 093°52'0 0.0
2018-Jun-18 21:30N 29°56' W 093°52'0 0.0
2018-Jun-18 21:00N 29°56' W 093°52'0 0.0
2018-Jun-18 20:30N 29°56' W 093°52'0 0.0
2018-Jun-18 20:00N 29°56' W 093°52'0 0.0
2018-Jun-18 19:30N 29°56' W 093°52'0 0.0
2018-Jun-18 19:00N 29°56' W 093°52'0 0.0
2018-Jun-18 18:30N 29°56' W 093°52'0 0.0
2018-Jun-18 18:00N 29°56' W 093°52'0 0.0
2018-Jun-18 17:30N 29°56' W 093°52'0 0.0
2018-Jun-18 17:00N 29°56' W 093°52'0 0.0
2018-Jun-18 16:30N 29°56' W 093°52'0 0.0
2018-Jun-18 16:00N 29°56' W 093°52'0 0.0
2018-Jun-18 15:30N 29°56' W 093°52'0 0.1
2018-Jun-18 15:00N 29°56' W 093°52'0 0.0
2018-Jun-18 14:30N 29°56' W 093°52'0 0.0
2018-Jun-18 14:00N 29°56' W 093°52'0 0.0
2018-Jun-18 13:30N 29°56' W 093°52'0 0.0
2018-Jun-18 13:00N 29°56' W 093°52'0 0.0
2018-Jun-18 12:30N 29°56' W 093°52'0 0.0
2018-Jun-18 12:00N 29°56' W 093°52'0 0.0
2018-Jun-18 11:30N 29°56' W 093°52'0 0.0
2018-Jun-18 11:00N 29°56' W 093°52'0 0.0
2018-Jun-18 10:30N 29°56' W 093°52'0 0.0
2018-Jun-18 10:00N 29°56' W 093°52'0 0.0
2018-Jun-18 09:30N 29°56' W 093°52'0 0.0
2018-Jun-18 08:58N 29°56' W 093°52'0 0.0
2018-Jun-18 08:30N 29°56' W 093°52'0 0.0
2018-Jun-18 07:59N 29°56' W 093°52'0 0.0
2018-Jun-18 07:27N 29°56' W 093°52'0 0.0
2018-Jun-18 07:00N 29°56' W 093°52'0 0.0
2018-Jun-18 06:30N 29°56' W 093°52'0 0.0
2018-Jun-18 06:01N 29°56' W 093°52'0 0.0
2018-Jun-18 05:30N 29°56' W 093°52'0 0.0
2018-Jun-18 05:00N 29°56' W 093°52'0 0.0
2018-Jun-18 04:30N 29°56' W 093°52'0 0.0
2018-Jun-18 04:00N 29°56' W 093°52'0 0.1
2018-Jun-18 03:30N 29°56' W 093°52'1 2.0
2018-Jun-18 03:00N 29°55' W 093°53'3 6.4
2018-Jun-18 02:30N 29°53' W 093°55'3 7.0
2018-Jun-18 02:00N 29°50' W 093°57'3 5.5
2018-Jun-18 01:30N 29°48' W 093°60'3 6.0
2018-Jun-18 01:00N 29°46' W 094°02'3 6.1
2018-Jun-18 00:30N 29°44' W 094°05'1 1.4
2018-Jun-18 00:00N 29°44' W 094°06'0 0.0
2018-Jun-17 23:30N 29°44' W 094°06'0 0.0
2018-Jun-17 23:00N 29°44' W 094°06'0 0.0
2018-Jun-17 22:30N 29°44' W 094°06'0 0.0
2018-Jun-17 22:00N 29°44' W 094°06'0 0.0
2018-Jun-17 21:30N 29°44' W 094°06'0 0.0
2018-Jun-17 21:00N 29°44' W 094°06'0 0.0
2018-Jun-17 20:30N 29°44' W 094°06'0 0.0
2018-Jun-17 20:00N 29°44' W 094°06'0 0.0
2018-Jun-17 19:30N 29°44' W 094°06'0 0.0
2018-Jun-17 19:00N 29°44' W 094°06'0 0.0
2018-Jun-17 18:30N 29°44' W 094°06'0 0.0
2018-Jun-17 18:00N 29°44' W 094°06'0 0.0
2018-Jun-17 17:30N 29°44' W 094°06'1 2.4
2018-Jun-17 17:00N 29°43' W 094°07'3 5.5
2018-Jun-17 16:30N 29°41' W 094°09'3 5.2
2018-Jun-17 16:00N 29°41' W 094°12'3 5.6
2018-Jun-17 15:30N 29°39' W 094°15'3 5.7
2018-Jun-17 15:00N 29°38' W 094°18'3 5.8
2018-Jun-17 14:30N 29°37' W 094°21'3 5.4
2018-Jun-17 14:00N 29°36' W 094°24'2 4.3
2018-Jun-17 13:30N 29°34' W 094°25'4 6.1
2018-Jun-17 12:49N 29°32' W 094°29'19 1.5
2018-Jun-17 00:16N 29°22' W 094°48'17 6.9
2018-Jun-16 21:49N 29°37' W 094°57'2 7.1
2018-Jun-16 21:30N 29°39' W 094°58'3 5.4
2018-Jun-16 21:00N 29°41' W 094°59'1 0.1
2018-Jun-16 01:51N 29°42' W 095°01'3 7.0
2018-Jun-16 01:27N 29°40' W 094°59'4 7.9
2018-Jun-16 01:00N 29°37' W 094°57'13 7.5
2018-Jun-15 23:15N 29°25' W 094°50'2 7.2
2018-Jun-15 22:59N 29°24' W 094°49'3 5.1
2018-Jun-15 22:30N 29°23' W 094°46'1 2.6
2018-Jun-15 21:55N 29°24' W 094°45'1 2.1
2018-Jun-15 21:30N 29°25' W 094°44'31 5.6
2018-Jun-15 16:02N 29°40' W 094°14'1 6.7
2018-Jun-15 15:55N 29°40' W 094°13'3 6.3
2018-Jun-15 15:25N 29°41' W 094°09'3 6.6
2018-Jun-15 15:00N 29°43' W 094°07'3 6.7
2018-Jun-15 14:30N 29°45' W 094°04'3 6.6
2018-Jun-15 14:00N 29°47' W 094°01'3 5.8
2018-Jun-15 13:30N 29°49' W 093°58'2 4.0
2018-Jun-15 13:00N 29°51' W 093°57'3 5.2
2018-Jun-15 12:30N 29°53' W 093°55'3 5.8
2018-Jun-15 12:00N 29°55' W 093°53'3 5.8
2018-Jun-15 11:30N 29°58' W 093°51'3 6.5
2018-Jun-15 11:00N 29°59' W 093°48'3 6.3
2018-Jun-15 10:30N 30°01' W 093°45'3 6.1
2018-Jun-15 09:58N 30°03' W 093°42'1 2.7
2018-Jun-15 09:30N 30°04' W 093°41'2 4.2
2018-Jun-15 09:00N 30°04' W 093°39'3 6.1
2018-Jun-15 08:30N 30°04' W 093°35'3 6.3
2018-Jun-15 08:00N 30°04' W 093°31'3 5.8
2018-Jun-15 07:30N 30°04' W 093°28'3 5.9
2018-Jun-15 07:00N 30°04' W 093°25'3 5.5
2018-Jun-15 06:30N 30°04' W 093°21'2 4.9
2018-Jun-15 06:00N 30°05' W 093°20'2 3.4
2018-Jun-15 05:30N 30°05' W 093°18'1 1.1
2018-Jun-15 05:00N 30°05' W 093°17'0 1.0
2018-Jun-15 04:30N 30°05' W 093°17'1 1.2
2018-Jun-15 04:00N 30°04' W 093°16'0 0.0
2018-Jun-15 03:30N 30°04' W 093°16'0 0.0
2018-Jun-15 03:00N 30°04' W 093°16'0 0.0
2018-Jun-15 02:30N 30°04' W 093°16'0 0.0
2018-Jun-15 02:00N 30°04' W 093°16'0 0.0
2018-Jun-15 01:30N 30°04' W 093°16'0 0.0
2018-Jun-15 01:00N 30°04' W 093°16'0 0.0
2018-Jun-15 00:30N 30°04' W 093°16'0 0.0
2018-Jun-15 00:00N 30°04' W 093°16'0 0.0
2018-Jun-14 23:30N 30°04' W 093°16'0 0.0
2018-Jun-14 23:00N 30°04' W 093°16'0 0.0
2018-Jun-14 22:30N 30°04' W 093°16'0 0.0
2018-Jun-14 22:00N 30°04' W 093°16'0 0.0
2018-Jun-14 21:30N 30°04' W 093°16'0 0.0
2018-Jun-14 21:00N 30°04' W 093°16'0 0.0
2018-Jun-14 20:30N 30°04' W 093°16'0 0.0
2018-Jun-14 19:59N 30°04' W 093°16'0 0.0
2018-Jun-14 19:30N 30°04' W 093°16'0 0.0
2018-Jun-14 19:00N 30°04' W 093°16'0 0.0
2018-Jun-14 18:30N 30°04' W 093°16'0 0.0
2018-Jun-14 18:00N 30°04' W 093°16'0 0.0
2018-Jun-14 17:30N 30°04' W 093°16'0 0.0
2018-Jun-14 17:00N 30°04' W 093°16'0 0.0
2018-Jun-14 16:30N 30°04' W 093°16'0 0.0
2018-Jun-14 16:00N 30°04' W 093°16'0 0.0
2018-Jun-14 15:30N 30°04' W 093°16'0 0.0
2018-Jun-14 15:00N 30°04' W 093°16'0 0.0
2018-Jun-14 14:30N 30°04' W 093°16'0 0.0
2018-Jun-14 14:00N 30°04' W 093°16'0 0.0
2018-Jun-14 13:30N 30°04' W 093°16'0 0.0
2018-Jun-14 13:00N 30°04' W 093°16'0 0.0
2018-Jun-14 12:30N 30°04' W 093°16'0 0.0
2018-Jun-14 11:58N 30°04' W 093°16'0 0.0
2018-Jun-14 11:30N 30°04' W 093°16'0 0.0
2018-Jun-14 11:00N 30°04' W 093°16'0 0.0
2018-Jun-14 10:30N 30°04' W 093°16'0 0.0
2018-Jun-14 10:00N 30°04' W 093°16'0 0.0
2018-Jun-14 09:30N 30°04' W 093°16'1 1.2
2018-Jun-14 09:00N 30°04' W 093°16'1 2.6
2018-Jun-14 08:30N 30°02' W 093°16'2 4.5
2018-Jun-14 08:00N 30°01' W 093°14'2 3.2
2018-Jun-14 07:30N 29°59' W 093°13'1 2.2
2018-Jun-14 06:59N 29°59' W 093°12'0 0.0
2018-Jun-14 06:30N 29°59' W 093°12'0 0.0
2018-Jun-14 06:00N 29°59' W 093°12'0 0.0
2018-Jun-14 05:30N 29°59' W 093°12'0 0.0
2018-Jun-14 04:59N 29°59' W 093°12'0 0.0
2018-Jun-14 04:29N 29°59' W 093°12'0 0.0
2018-Jun-14 04:00N 29°59' W 093°12'0 0.0
2018-Jun-14 03:30N 29°59' W 093°12'0 0.0
2018-Jun-14 03:00N 29°59' W 093°12'0 0.0
2018-Jun-14 02:30N 29°59' W 093°12'0 0.0
2018-Jun-14 02:00N 29°59' W 093°12'0 0.0
2018-Jun-14 01:30N 29°59' W 093°12'0 0.0
2018-Jun-14 00:58N 29°59' W 093°12'0 0.1
2018-Jun-14 00:30N 29°58' W 093°12'1 1.4
2018-Jun-14 00:00N 29°58' W 093°11'1 1.8
2018-Jun-13 23:30N 29°57' W 093°11'1 1.4
2018-Jun-13 23:00N 29°57' W 093°10'0 0.6
2018-Jun-13 22:29N 29°56' W 093°10'0 0.5
2018-Jun-13 22:00N 29°56' W 093°10'0 0.0
2018-Jun-13 21:30N 29°56' W 093°10'0 0.0
2018-Jun-13 21:00N 29°56' W 093°10'0 0.0
2018-Jun-13 20:30N 29°56' W 093°10'0 0.0
2018-Jun-13 19:59N 29°56' W 093°10'0 0.0
2018-Jun-13 19:30N 29°56' W 093°10'0 0.0
2018-Jun-13 19:00N 29°56' W 093°10'1 1.1
2018-Jun-13 18:29N 29°56' W 093°09'2 3.0
2018-Jun-13 17:56N 29°56' W 093°07'37 5.4
2018-Jun-13 11:08N 29°53' W 092°25'1 6.1
2018-Jun-13 11:00N 29°53' W 092°24'3 4.8
2018-Jun-13 10:24N 29°51' W 092°22'2 5.5
2018-Jun-13 10:00N 29°50' W 092°19'2 4.8
2018-Jun-13 09:30N 29°49' W 092°17'3 5.3
2018-Jun-13 09:00N 29°48' W 092°14'2 3.8
2018-Jun-13 08:30N 29°47' W 092°12'1 1.8
2018-Jun-13 08:00N 29°47' W 092°11'2 4.5
2018-Jun-13 07:30N 29°47' W 092°09'3 5.7
2018-Jun-13 07:00N 29°48' W 092°06'3 5.7
2018-Jun-13 06:31N 29°49' W 092°03'3 5.4
2018-Jun-13 06:00N 29°50' W 091°60'3 5.8
2018-Jun-13 05:30N 29°51' W 091°57'6 5.3
2018-Jun-13 04:21N 29°50' W 091°50'  
Track history (hours):
 
Tides and Currents Weather Stations Pressure Air Temp Water Temp Dewpoint Dewpoint Depression Visibility Wind Speed Wind Dir Waves Ship Positions

MiSS Aimee

Owner: PATTERSON MARINE INC, MORGAN CITY, LA. More information available from US FCC via Universal Licensing System and Coast Guard Vessel Documentation Center.

Last reported at 2018-Jun-21 14:22 UTC. Time now 2018-Jun-23 08:28 UTC.
Position N 29°50' W 091°58'.

Length 16 m; draft 2 m.

MMSI: 367060130.

Date/timePositionNaut miles runAvg speedWind from/ knotsBaromVisibWave heightAir tempDewpointWater temp
2018-Jun-21 14:22N 29°50' W 091°58'2 6.1
2018-Jun-21 14:00N 29°50' W 092°00'2 4.1
2018-Jun-21 13:30N 29°49' W 092°02'3 6.2
2018-Jun-21 13:00N 29°48' W 092°06'3 5.4
2018-Jun-21 12:30N 29°47' W 092°09'2 4.7
2018-Jun-21 12:00N 29°47' W 092°11'1 1.9
2018-Jun-21 11:30N 29°47' W 092°12'1 2.0
2018-Jun-21 11:00N 29°48' W 092°14'2 3.9
2018-Jun-21 10:30N 29°48' W 092°16'3 5.8
2018-Jun-21 10:00N 29°50' W 092°18'2 4.3
2018-Jun-21 09:30N 29°51' W 092°21'2 4.7
2018-Jun-21 09:00N 29°52' W 092°23'39 5.6
2018-Jun-21 02:06N 29°56' W 093°07'1 6.0
2018-Jun-21 02:00N 29°56' W 093°08'3 5.6
2018-Jun-21 01:30N 29°57' W 093°11'3 5.9
2018-Jun-21 01:00N 29°59' W 093°13'2 4.3
2018-Jun-21 00:30N 30°01' W 093°14'2 4.1
2018-Jun-21 00:00N 30°03' W 093°16'3 5.4
2018-Jun-20 23:30N 30°05' W 093°17'1 1.2
2018-Jun-20 23:00N 30°05' W 093°18'1 1.1
2018-Jun-20 22:30N 30°06' W 093°18'0 0.1
2018-Jun-20 21:58N 30°06' W 093°18'0 0.0
2018-Jun-20 21:28N 30°06' W 093°18'0 0.0
2018-Jun-20 20:59N 30°06' W 093°18'0 0.0
2018-Jun-20 20:30N 30°06' W 093°18'0 0.0
2018-Jun-20 20:00N 30°06' W 093°18'0 0.0
2018-Jun-20 19:30N 30°06' W 093°18'0 0.0
2018-Jun-20 19:00N 30°06' W 093°18'0 0.0
2018-Jun-20 18:30N 30°06' W 093°18'0 0.0
2018-Jun-20 18:00N 30°06' W 093°18'0 0.0
2018-Jun-20 17:30N 30°06' W 093°18'0 0.0
2018-Jun-20 17:00N 30°06' W 093°18'0 0.0
2018-Jun-20 16:30N 30°06' W 093°18'0 0.0
2018-Jun-20 16:00N 30°06' W 093°18'0 0.0
2018-Jun-20 15:30N 30°06' W 093°18'0 0.0
2018-Jun-20 15:00N 30°06' W 093°18'0 0.0
2018-Jun-20 14:30N 30°06' W 093°18'0 0.0
2018-Jun-20 14:00N 30°06' W 093°18'0 0.0
2018-Jun-20 13:30N 30°06' W 093°18'0 0.0
2018-Jun-20 12:58N 30°06' W 093°18'0 0.0
2018-Jun-20 12:28N 30°06' W 093°18'0 0.0
2018-Jun-20 12:00N 30°06' W 093°18'0 0.0
2018-Jun-20 11:30N 30°06' W 093°18'0 0.0
2018-Jun-20 11:00N 30°06' W 093°18'0 0.0
2018-Jun-20 10:30N 30°06' W 093°18'0 0.0
2018-Jun-20 10:00N 30°06' W 093°18'0 0.0
2018-Jun-20 09:30N 30°06' W 093°18'0 0.0
2018-Jun-20 09:00N 30°06' W 093°18'0 0.0
2018-Jun-20 08:30N 30°06' W 093°18'0 0.0
2018-Jun-20 08:00N 30°06' W 093°18'0 0.0
2018-Jun-20 07:30N 30°06' W 093°18'0 0.0
2018-Jun-20 07:00N 30°06' W 093°18'0 0.0
2018-Jun-20 06:30N 30°06' W 093°18'0 0.0
2018-Jun-20 06:00N 30°06' W 093°18'0 0.0
2018-Jun-20 05:30N 30°06' W 093°18'0 0.0
2018-Jun-20 05:00N 30°06' W 093°18'0 0.0
2018-Jun-20 04:30N 30°06' W 093°18'0 0.1
2018-Jun-20 04:00N 30°06' W 093°18'0 0.0
2018-Jun-20 03:30N 30°06' W 093°18'0 0.0
2018-Jun-20 03:00N 30°06' W 093°18'0 0.0
2018-Jun-20 02:29N 30°06' W 093°18'0 0.8
2018-Jun-20 02:00N 30°06' W 093°18'2 4.9
2018-Jun-20 01:30N 30°04' W 093°20'3 6.0
2018-Jun-20 01:00N 30°04' W 093°24'4 7.2
2018-Jun-20 00:30N 30°04' W 093°28'4 7.5
2018-Jun-20 00:00N 30°04' W 093°32'4 7.5
2018-Jun-19 23:30N 30°04' W 093°37'4 7.6
2018-Jun-19 23:00N 30°03' W 093°41'3 5.1
2018-Jun-19 22:30N 30°03' W 093°44'3 6.5
2018-Jun-19 22:00N 30°00' W 093°46'4 7.3
2018-Jun-19 21:30N 29°59' W 093°50'3 6.3
2018-Jun-19 21:00N 29°56' W 093°52'0 0.1
2018-Jun-19 20:30N 29°56' W 093°52'0 0.0
2018-Jun-19 20:00N 29°56' W 093°52'0 0.0
2018-Jun-19 19:30N 29°56' W 093°52'0 0.0
2018-Jun-19 19:00N 29°56' W 093°52'0 0.0
2018-Jun-19 18:30N 29°56' W 093°52'0 0.0
2018-Jun-19 18:00N 29°56' W 093°52'0 0.0
2018-Jun-19 17:30N 29°56' W 093°52'0 0.0
2018-Jun-19 17:00N 29°56' W 093°52'0 0.0
2018-Jun-19 16:30N 29°56' W 093°52'0 0.0
2018-Jun-19 16:00N 29°56' W 093°52'0 0.0
2018-Jun-19 15:30N 29°56' W 093°52'0 0.2
2018-Jun-19 14:59N 29°56' W 093°52'0 0.1
2018-Jun-19 14:30N 29°56' W 093°52'0 0.0
2018-Jun-19 14:00N 29°56' W 093°52'0 0.0
2018-Jun-19 13:30N 29°56' W 093°52'0 0.0
2018-Jun-19 13:00N 29°56' W 093°52'0 0.0
2018-Jun-19 12:30N 29°56' W 093°52'0 0.0
2018-Jun-19 12:00N 29°56' W 093°52'0 0.0
2018-Jun-19 11:30N 29°56' W 093°52'0 0.0
2018-Jun-19 11:00N 29°56' W 093°52'0 0.0
2018-Jun-19 10:30N 29°56' W 093°52'0 0.0
2018-Jun-19 10:00N 29°56' W 093°52'0 0.0
2018-Jun-19 09:30N 29°56' W 093°52'0 0.0
2018-Jun-19 09:00N 29°56' W 093°52'0 0.0
2018-Jun-19 08:30N 29°56' W 093°52'0 0.0
2018-Jun-19 08:00N 29°56' W 093°52'0 0.0
2018-Jun-19 07:30N 29°56' W 093°52'0 0.0
2018-Jun-19 07:00N 29°56' W 093°52'0 0.0
2018-Jun-19 06:30N 29°56' W 093°52'0 0.0
2018-Jun-19 06:00N 29°56' W 093°52'0 0.0
2018-Jun-19 05:30N 29°56' W 093°52'0 0.0
2018-Jun-19 05:00N 29°56' W 093°52'0 0.0
2018-Jun-19 04:30N 29°56' W 093°52'0 0.0
2018-Jun-19 04:00N 29°56' W 093°52'0 0.0
2018-Jun-19 03:30N 29°56' W 093°52'0 0.0
2018-Jun-19 03:00N 29°56' W 093°52'0 0.0
2018-Jun-19 02:30N 29°56' W 093°52'0 0.0
2018-Jun-19 02:00N 29°56' W 093°52'0 0.0
2018-Jun-19 01:30N 29°56' W 093°52'0 0.0
2018-Jun-19 01:00N 29°56' W 093°52'0 0.0
2018-Jun-19 00:30N 29°56' W 093°52'0 0.0
2018-Jun-19 00:00N 29°56' W 093°52'0 0.0
2018-Jun-18 23:30N 29°56' W 093°52'0 0.0
2018-Jun-18 23:00N 29°56' W 093°52'0 0.0
2018-Jun-18 22:30N 29°56' W 093°52'0 0.0
2018-Jun-18 22:00N 29°56' W 093°52'0 0.0
2018-Jun-18 21:30N 29°56' W 093°52'0 0.0
2018-Jun-18 21:00N 29°56' W 093°52'0 0.0
2018-Jun-18 20:30N 29°56' W 093°52'0 0.0
2018-Jun-18 20:00N 29°56' W 093°52'0 0.0
2018-Jun-18 19:30N 29°56' W 093°52'0 0.0
2018-Jun-18 19:00N 29°56' W 093°52'0 0.0
2018-Jun-18 18:30N 29°56' W 093°52'0 0.0
2018-Jun-18 18:00N 29°56' W 093°52'0 0.0
2018-Jun-18 17:30N 29°56' W 093°52'0 0.0
2018-Jun-18 17:00N 29°56' W 093°52'0 0.0
2018-Jun-18 16:30N 29°56' W 093°52'0 0.0
2018-Jun-18 16:00N 29°56' W 093°52'0 0.0
2018-Jun-18 15:30N 29°56' W 093°52'0 0.1
2018-Jun-18 15:00N 29°56' W 093°52'0 0.0
2018-Jun-18 14:30N 29°56' W 093°52'0 0.0
2018-Jun-18 14:00N 29°56' W 093°52'0 0.0
2018-Jun-18 13:30N 29°56' W 093°52'0 0.0
2018-Jun-18 13:00N 29°56' W 093°52'0 0.0
2018-Jun-18 12:30N 29°56' W 093°52'0 0.0
2018-Jun-18 12:00N 29°56' W 093°52'0 0.0
2018-Jun-18 11:30N 29°56' W 093°52'0 0.0
2018-Jun-18 11:00N 29°56' W 093°52'0 0.0
2018-Jun-18 10:30N 29°56' W 093°52'0 0.0
2018-Jun-18 10:00N 29°56' W 093°52'0 0.0
2018-Jun-18 09:30N 29°56' W 093°52'0 0.0
2018-Jun-18 08:58N 29°56' W 093°52'0 0.0
2018-Jun-18 08:30N 29°56' W 093°52'0 0.0
2018-Jun-18 07:59N 29°56' W 093°52'0 0.0
2018-Jun-18 07:27N 29°56' W 093°52'0 0.0
2018-Jun-18 07:00N 29°56' W 093°52'0 0.0
2018-Jun-18 06:30N 29°56' W 093°52'0 0.0
2018-Jun-18 06:01N 29°56' W 093°52'0 0.0
2018-Jun-18 05:30N 29°56' W 093°52'0 0.0
2018-Jun-18 05:00N 29°56' W 093°52'0 0.0
2018-Jun-18 04:30N 29°56' W 093°52'0 0.0
2018-Jun-18 04:00N 29°56' W 093°52'0 0.1
2018-Jun-18 03:30N 29°56' W 093°52'1 2.0
2018-Jun-18 03:00N 29°55' W 093°53'3 6.4
2018-Jun-18 02:30N 29°53' W 093°55'3 7.0
2018-Jun-18 02:00N 29°50' W 093°57'3 5.5
2018-Jun-18 01:30N 29°48' W 093°60'3 6.0
2018-Jun-18 01:00N 29°46' W 094°02'3 6.1
2018-Jun-18 00:30N 29°44' W 094°05'1 1.4
2018-Jun-18 00:00N 29°44' W 094°06'0 0.0
2018-Jun-17 23:30N 29°44' W 094°06'0 0.0
2018-Jun-17 23:00N 29°44' W 094°06'0 0.0
2018-Jun-17 22:30N 29°44' W 094°06'0 0.0
2018-Jun-17 22:00N 29°44' W 094°06'0 0.0
2018-Jun-17 21:30N 29°44' W 094°06'0 0.0
2018-Jun-17 21:00N 29°44' W 094°06'0 0.0
2018-Jun-17 20:30N 29°44' W 094°06'0 0.0
2018-Jun-17 20:00N 29°44' W 094°06'0 0.0
2018-Jun-17 19:30N 29°44' W 094°06'0 0.0
2018-Jun-17 19:00N 29°44' W 094°06'0 0.0
2018-Jun-17 18:30N 29°44' W 094°06'0 0.0
2018-Jun-17 18:00N 29°44' W 094°06'0 0.0
2018-Jun-17 17:30N 29°44' W 094°06'1 2.4
2018-Jun-17 17:00N 29°43' W 094°07'3 5.5
2018-Jun-17 16:30N 29°41' W 094°09'3 5.2
2018-Jun-17 16:00N 29°41' W 094°12'3 5.6
2018-Jun-17 15:30N 29°39' W 094°15'3 5.7
2018-Jun-17 15:00N 29°38' W 094°18'3 5.8
2018-Jun-17 14:30N 29°37' W 094°21'3 5.4
2018-Jun-17 14:00N 29°36' W 094°24'2 4.3
2018-Jun-17 13:30N 29°34' W 094°25'4 6.1
2018-Jun-17 12:49N 29°32' W 094°29'19 1.5
2018-Jun-17 00:16N 29°22' W 094°48'17 6.9
2018-Jun-16 21:49N 29°37' W 094°57'2 7.1
2018-Jun-16 21:30N 29°39' W 094°58'3 5.4
2018-Jun-16 21:00N 29°41' W 094°59'1 0.1
2018-Jun-16 01:51N 29°42' W 095°01'3 7.0
2018-Jun-16 01:27N 29°40' W 094°59'4 7.9
2018-Jun-16 01:00N 29°37' W 094°57'13 7.5
2018-Jun-15 23:15N 29°25' W 094°50'2 7.2
2018-Jun-15 22:59N 29°24' W 094°49'3 5.1
2018-Jun-15 22:30N 29°23' W 094°46'1 2.6
2018-Jun-15 21:55N 29°24' W 094°45'1 2.1
2018-Jun-15 21:30N 29°25' W 094°44'31 5.6
2018-Jun-15 16:02N 29°40' W 094°14'1 6.7
2018-Jun-15 15:55N 29°40' W 094°13'3 6.3
2018-Jun-15 15:25N 29°41' W 094°09'3 6.6
2018-Jun-15 15:00N 29°43' W 094°07'3 6.7
2018-Jun-15 14:30N 29°45' W 094°04'3 6.6
2018-Jun-15 14:00N 29°47' W 094°01'3 5.8
2018-Jun-15 13:30N 29°49' W 093°58'2 4.0
2018-Jun-15 13:00N 29°51' W 093°57'3 5.2
2018-Jun-15 12:30N 29°53' W 093°55'3 5.8
2018-Jun-15 12:00N 29°55' W 093°53'3 5.8
2018-Jun-15 11:30N 29°58' W 093°51'3 6.5
2018-Jun-15 11:00N 29°59' W 093°48'3 6.3
2018-Jun-15 10:30N 30°01' W 093°45'3 6.1
2018-Jun-15 09:58N 30°03' W 093°42'1 2.7
2018-Jun-15 09:30N 30°04' W 093°41'2 4.2
2018-Jun-15 09:00N 30°04' W 093°39'3 6.1
2018-Jun-15 08:30N 30°04' W 093°35'3 6.3
2018-Jun-15 08:00N 30°04' W 093°31'3 5.8
2018-Jun-15 07:30N 30°04' W 093°28'3 5.9
2018-Jun-15 07:00N 30°04' W 093°25'3 5.5
2018-Jun-15 06:30N 30°04' W 093°21'2 4.9
2018-Jun-15 06:00N 30°05' W 093°20'2 3.4
2018-Jun-15 05:30N 30°05' W 093°18'1 1.1
2018-Jun-15 05:00N 30°05' W 093°17'0 1.0
2018-Jun-15 04:30N 30°05' W 093°17'1 1.2
2018-Jun-15 04:00N 30°04' W 093°16'0 0.0
2018-Jun-15 03:30N 30°04' W 093°16'0 0.0
2018-Jun-15 03:00N 30°04' W 093°16'0 0.0
2018-Jun-15 02:30N 30°04' W 093°16'0 0.0
2018-Jun-15 02:00N 30°04' W 093°16'0 0.0
2018-Jun-15 01:30N 30°04' W 093°16'0 0.0
2018-Jun-15 01:00N 30°04' W 093°16'0 0.0
2018-Jun-15 00:30N 30°04' W 093°16'0 0.0
2018-Jun-15 00:00N 30°04' W 093°16'0 0.0
2018-Jun-14 23:30N 30°04' W 093°16'0 0.0
2018-Jun-14 23:00N 30°04' W 093°16'0 0.0
2018-Jun-14 22:30N 30°04' W 093°16'0 0.0
2018-Jun-14 22:00N 30°04' W 093°16'0 0.0
2018-Jun-14 21:30N 30°04' W 093°16'0 0.0
2018-Jun-14 21:00N 30°04' W 093°16'0 0.0
2018-Jun-14 20:30N 30°04' W 093°16'0 0.0
2018-Jun-14 19:59N 30°04' W 093°16'0 0.0
2018-Jun-14 19:30N 30°04' W 093°16'0 0.0
2018-Jun-14 19:00N 30°04' W 093°16'0 0.0
2018-Jun-14 18:30N 30°04' W 093°16'0 0.0
2018-Jun-14 18:00N 30°04' W 093°16'0 0.0
2018-Jun-14 17:30N 30°04' W 093°16'0 0.0
2018-Jun-14 17:00N 30°04' W 093°16'0 0.0
2018-Jun-14 16:30N 30°04' W 093°16'0 0.0
2018-Jun-14 16:00N 30°04' W 093°16'0 0.0
2018-Jun-14 15:30N 30°04' W 093°16'0 0.0
2018-Jun-14 15:00N 30°04' W 093°16'0 0.0
2018-Jun-14 14:30N 30°04' W 093°16'0 0.0
2018-Jun-14 14:00N 30°04' W 093°16'0 0.0
2018-Jun-14 13:30N 30°04' W 093°16'0 0.0
2018-Jun-14 13:00N 30°04' W 093°16'0 0.0
2018-Jun-14 12:30N 30°04' W 093°16'0 0.0
2018-Jun-14 11:58N 30°04' W 093°16'0 0.0
2018-Jun-14 11:30N 30°04' W 093°16'0 0.0
2018-Jun-14 11:00N 30°04' W 093°16'0 0.0
2018-Jun-14 10:30N 30°04' W 093°16'0 0.0
2018-Jun-14 10:00N 30°04' W 093°16'0 0.0
2018-Jun-14 09:30N 30°04' W 093°16'1 1.2
2018-Jun-14 09:00N 30°04' W 093°16'1 2.6
2018-Jun-14 08:30N 30°02' W 093°16'2 4.5
2018-Jun-14 08:00N 30°01' W 093°14'2 3.2
2018-Jun-14 07:30N 29°59' W 093°13'1 2.2
2018-Jun-14 06:59N 29°59' W 093°12'0 0.0
2018-Jun-14 06:30N 29°59' W 093°12'0 0.0
2018-Jun-14 06:00N 29°59' W 093°12'0 0.0
2018-Jun-14 05:30N 29°59' W 093°12'0 0.0
2018-Jun-14 04:59N 29°59' W 093°12'0 0.0
2018-Jun-14 04:29N 29°59' W 093°12'0 0.0
2018-Jun-14 04:00N 29°59' W 093°12'0 0.0
2018-Jun-14 03:30N 29°59' W 093°12'0 0.0
2018-Jun-14 03:00N 29°59' W 093°12'0 0.0
2018-Jun-14 02:30N 29°59' W 093°12'0 0.0
2018-Jun-14 02:00N 29°59' W 093°12'0 0.0
2018-Jun-14 01:30N 29°59' W 093°12'0 0.0
2018-Jun-14 00:58N 29°59' W 093°12'0 0.1
2018-Jun-14 00:30N 29°58' W 093°12'1 1.4
2018-Jun-14 00:00N 29°58' W 093°11'1 1.8
2018-Jun-13 23:30N 29°57' W 093°11'1 1.4
2018-Jun-13 23:00N 29°57' W 093°10'0 0.6
2018-Jun-13 22:29N 29°56' W 093°10'0 0.5
2018-Jun-13 22:00N 29°56' W 093°10'0 0.0
2018-Jun-13 21:30N 29°56' W 093°10'0 0.0
2018-Jun-13 21:00N 29°56' W 093°10'0 0.0
2018-Jun-13 20:30N 29°56' W 093°10'0 0.0
2018-Jun-13 19:59N 29°56' W 093°10'0 0.0
2018-Jun-13 19:30N 29°56' W 093°10'0 0.0
2018-Jun-13 19:00N 29°56' W 093°10'1 1.1
2018-Jun-13 18:29N 29°56' W 093°09'2 3.0
2018-Jun-13 17:56N 29°56' W 093°07'37 5.4
2018-Jun-13 11:08N 29°53' W 092°25'1 6.1
2018-Jun-13 11:00N 29°53' W 092°24'3 4.8
2018-Jun-13 10:24N 29°51' W 092°22'2 5.5
2018-Jun-13 10:00N 29°50' W 092°19'2 4.8
2018-Jun-13 09:30N 29°49' W 092°17'3 5.3
2018-Jun-13 09:00N 29°48' W 092°14'2 3.8
2018-Jun-13 08:30N 29°47' W 092°12'1 1.8
2018-Jun-13 08:00N 29°47' W 092°11'2 4.5
2018-Jun-13 07:30N 29°47' W 092°09'3 5.7
2018-Jun-13 07:00N 29°48' W 092°06'3 5.7
2018-Jun-13 06:31N 29°49' W 092°03'3 5.4
2018-Jun-13 06:00N 29°50' W 091°60'3 5.8
2018-Jun-13 05:30N 29°51' W 091°57'6 5.3
2018-Jun-13 04:21N 29°50' W 091°50'  

Dump ship's entire track history